createdAt,value
2023-04-26T00:01:38.473Z,4.10
2023-04-26T00:04:06.291Z,4.23
2023-04-26T00:06:34.686Z,4.00
2023-04-26T00:09:02.091Z,4.30
2023-04-26T00:11:29.479Z,4.03
2023-04-26T00:13:58.559Z,4.17
2023-04-26T00:16:26.079Z,4.30
2023-04-26T00:18:54.724Z,3.50
2023-04-26T00:21:22.376Z,3.60
2023-04-26T00:23:49.795Z,4.73
2023-04-26T00:26:17.174Z,3.60
2023-04-26T00:28:44.591Z,4.07
2023-04-26T00:31:15.793Z,4.03
2023-04-26T00:33:44.100Z,3.20
2023-04-26T00:36:11.464Z,4.30
2023-04-26T00:38:38.865Z,3.47
2023-04-26T00:41:06.277Z,5.40
2023-04-26T00:43:33.645Z,3.80
2023-04-26T00:46:01.163Z,4.10
2023-04-26T00:48:28.692Z,3.77
2023-04-26T00:50:56.416Z,4.27
2023-04-26T00:53:23.906Z,3.97
2023-04-26T00:55:52.198Z,3.80
2023-04-26T00:58:19.715Z,4.20
2023-04-26T01:00:47.228Z,3.57
2023-04-26T01:03:14.859Z,3.47
2023-04-26T01:05:42.360Z,4.10
2023-04-26T01:08:09.768Z,3.90
2023-04-26T01:10:37.204Z,4.00
2023-04-26T01:13:05.264Z,3.93
2023-04-26T01:15:33.373Z,3.40
2023-04-26T01:18:01.724Z,4.17
2023-04-26T01:20:29.626Z,5.53
2023-04-26T01:22:57.792Z,4.67
2023-04-26T01:25:25.136Z,3.93
2023-04-26T01:27:52.553Z,4.33
2023-04-26T01:30:20.026Z,4.77
2023-04-26T01:32:47.451Z,4.57
2023-04-26T01:35:14.834Z,4.20
2023-04-26T01:37:42.257Z,4.47
2023-04-26T01:40:10.412Z,5.00
2023-04-26T01:42:37.811Z,4.67
2023-04-26T01:45:05.578Z,5.30
2023-04-26T01:47:33.022Z,5.47
2023-04-26T01:50:00.377Z,4.47
2023-04-26T01:52:27.791Z,5.20
2023-04-26T01:54:55.254Z,5.20
2023-04-26T01:57:22.662Z,4.33
2023-04-26T01:59:50.180Z,5.17
2023-04-26T02:02:18.772Z,5.00
2023-04-26T02:04:46.180Z,4.33
2023-04-26T02:07:13.656Z,4.33
2023-04-26T02:09:41.299Z,5.27
2023-04-26T02:12:08.711Z,4.80
2023-04-26T02:14:36.093Z,5.53
2023-04-26T02:17:04.456Z,4.83
2023-04-26T02:19:31.817Z,5.20
2023-04-26T02:21:59.216Z,4.43
2023-04-26T02:24:26.613Z,4.97
2023-04-26T02:26:54.319Z,4.80
2023-04-26T02:29:32.649Z,4.83
2023-04-26T02:31:51.088Z,4.43
2023-04-26T02:34:18.454Z,5.30
2023-04-26T02:36:46.435Z,5.23
2023-04-26T02:39:14.001Z,5.00
2023-04-26T02:41:41.398Z,5.20
2023-04-26T02:44:08.864Z,5.10
2023-04-26T02:46:36.410Z,4.73
2023-04-26T02:49:03.849Z,4.80
2023-04-26T02:51:32.502Z,4.70
2023-04-26T02:53:59.957Z,4.93
2023-04-26T02:56:27.355Z,4.10
2023-04-26T02:58:54.770Z,4.50
2023-04-26T03:01:22.203Z,5.33
2023-04-26T03:03:49.699Z,4.93
2023-04-26T03:06:17.167Z,4.40
2023-04-26T03:08:44.553Z,4.80
2023-04-26T03:11:12.059Z,4.80
2023-04-26T03:13:39.416Z,4.60
2023-04-26T03:16:07.019Z,3.83
2023-04-26T03:18:34.378Z,4.30
2023-04-26T03:21:01.768Z,4.27
2023-04-26T03:23:29.232Z,4.30
2023-04-26T03:25:56.610Z,4.27
2023-04-26T03:28:24.006Z,3.77
2023-04-26T03:30:51.559Z,5.07
2023-04-26T03:33:18.972Z,4.37
2023-04-26T03:35:46.463Z,4.80
2023-04-26T03:38:13.899Z,5.10
2023-04-26T03:40:41.266Z,4.90
2023-04-26T03:43:08.671Z,5.20
2023-04-26T03:45:37.144Z,5.30
2023-04-26T03:48:04.706Z,4.70
2023-04-26T03:50:32.059Z,4.57
2023-04-26T03:52:59.491Z,5.20
2023-04-26T03:55:26.970Z,4.30
2023-04-26T03:57:54.361Z,5.00
2023-04-26T04:00:21.738Z,4.77
2023-04-26T04:02:49.272Z,4.30
2023-04-26T04:05:16.935Z,4.20
2023-04-26T04:07:44.424Z,4.30
2023-04-26T04:10:11.887Z,5.47
2023-04-26T04:12:39.309Z,4.97
2023-04-26T04:15:06.957Z,4.50
2023-04-26T04:17:36.485Z,4.90
2023-04-26T04:20:05.266Z,4.70
2023-04-26T04:22:32.675Z,4.47
2023-04-26T04:25:00.066Z,4.53
2023-04-26T04:27:28.302Z,4.33
2023-04-26T04:29:55.707Z,4.10
2023-04-26T04:32:23.579Z,3.70
2023-04-26T04:34:54.146Z,5.13
2023-04-26T04:37:25.410Z,5.23
2023-04-26T04:39:52.949Z,5.67
2023-04-26T04:42:20.357Z,4.80
2023-04-26T04:44:48.024Z,5.50
2023-04-26T04:47:15.414Z,5.50
2023-04-26T04:49:43.264Z,5.60
2023-04-26T04:52:10.730Z,4.87
2023-04-26T04:54:38.140Z,5.50
2023-04-26T04:57:06.482Z,4.20
2023-04-26T04:59:33.855Z,4.53
2023-04-26T05:02:01.316Z,4.90
2023-04-26T05:04:28.878Z,5.30
2023-04-26T05:06:56.465Z,4.57
2023-04-26T05:09:23.857Z,4.80
2023-04-26T05:11:51.827Z,4.63
2023-04-26T05:14:19.207Z,3.90
2023-04-26T05:16:46.704Z,3.67
2023-04-26T05:19:14.199Z,4.40
2023-04-26T05:21:41.894Z,4.43
2023-04-26T05:24:09.308Z,4.00
2023-04-26T05:26:36.770Z,4.20
2023-04-26T05:29:04.163Z,4.43
2023-04-26T05:31:31.728Z,3.70
2023-04-26T05:33:59.263Z,4.00
2023-04-26T05:36:29.134Z,4.90
2023-04-26T05:38:55.695Z,4.23
2023-04-26T05:41:23.107Z,4.00
2023-04-26T05:43:50.606Z,4.77
2023-04-26T05:46:18.491Z,5.43
2023-04-26T05:48:46.399Z,4.30
2023-04-26T05:51:13.877Z,3.97
2023-04-26T05:53:41.637Z,4.40
2023-04-26T05:56:09.034Z,5.03
2023-04-26T05:58:36.802Z,4.77
2023-04-26T06:01:04.266Z,4.80
2023-04-26T06:03:31.809Z,5.80
2023-04-26T06:05:59.854Z,4.80
2023-04-26T06:08:28.292Z,4.60
2023-04-26T06:10:55.727Z,4.60
2023-04-26T06:13:23.133Z,3.73
2023-04-26T06:15:50.533Z,3.30
2023-04-26T06:18:17.966Z,3.00
2023-04-26T06:20:46.399Z,3.57
2023-04-26T06:23:13.858Z,2.97
2023-04-26T06:25:42.877Z,2.50
2023-04-26T06:28:10.356Z,3.03
2023-04-26T06:30:37.778Z,2.83
2023-04-26T06:33:05.320Z,1.90
2023-04-26T06:35:32.746Z,2.30
2023-04-26T06:38:00.164Z,2.83
2023-04-26T06:40:28.017Z,2.53
2023-04-26T06:42:56.693Z,2.47
2023-04-26T06:45:24.114Z,3.30
2023-04-26T06:47:54.555Z,2.23
2023-04-26T06:50:22.040Z,2.50
2023-04-26T06:52:49.441Z,2.30
2023-04-26T06:55:16.827Z,2.63
2023-04-26T06:57:44.242Z,3.27
2023-04-26T07:00:12.708Z,2.33
2023-04-26T07:02:40.296Z,2.67
2023-04-26T07:05:08.090Z,2.60
2023-04-26T07:07:35.856Z,2.50
2023-04-26T07:10:04.005Z,2.63
2023-04-26T07:12:31.594Z,2.77
2023-04-26T07:14:59.033Z,2.80
2023-04-26T07:17:26.517Z,2.43
2023-04-26T07:19:55.502Z,2.80
2023-04-26T07:22:22.974Z,2.87
2023-04-26T07:24:50.380Z,2.67
2023-04-26T07:27:17.839Z,2.50
2023-04-26T07:29:45.555Z,2.70
2023-04-26T07:32:13.156Z,2.50
2023-04-26T07:34:41.079Z,2.67
2023-04-26T07:37:09.025Z,2.93
2023-04-26T07:39:36.702Z,3.03
2023-04-26T07:42:04.345Z,3.20
2023-04-26T07:44:31.781Z,2.43
2023-04-26T07:46:59.196Z,3.10
2023-04-26T07:49:26.648Z,3.47
2023-04-26T07:51:55.088Z,3.83
2023-04-26T07:54:22.508Z,2.63
2023-04-26T07:56:49.977Z,3.23
2023-04-26T07:59:17.404Z,3.60
2023-04-26T08:01:44.886Z,3.13
2023-04-26T08:04:12.475Z,3.17
2023-04-26T08:06:41.697Z,3.10
2023-04-26T08:09:09.673Z,3.23
2023-04-26T08:11:37.304Z,3.10
2023-04-26T08:14:04.788Z,2.43
2023-04-26T08:16:32.343Z,2.90
2023-04-26T08:19:01.381Z,3.20
2023-04-26T08:21:29.378Z,3.53
2023-04-26T08:23:56.772Z,3.70
2023-04-26T08:26:24.236Z,3.50
2023-04-26T08:28:51.633Z,3.50
2023-04-26T08:31:19.035Z,2.90
2023-04-26T08:33:46.484Z,2.93
2023-04-26T08:36:13.846Z,3.30
2023-04-26T08:38:42.296Z,3.03
2023-04-26T08:41:11.683Z,2.73
2023-04-26T08:43:39.117Z,3.57
2023-04-26T08:46:08.720Z,3.13
2023-04-26T08:48:36.939Z,3.30
2023-04-26T08:51:05.588Z,3.40
2023-04-26T08:53:35.575Z,2.87
2023-04-26T08:56:03.403Z,3.17
2023-04-26T08:58:32.234Z,3.70
2023-04-26T09:01:00.204Z,3.67
2023-04-26T09:03:28.034Z,2.90
2023-04-26T09:05:55.835Z,2.77
2023-04-26T09:08:23.729Z,2.63
2023-04-26T09:10:51.075Z,2.40
2023-04-26T09:13:18.430Z,3.13
2023-04-26T09:15:47.430Z,2.63
2023-04-26T09:18:18.086Z,2.87
2023-04-26T09:20:46.148Z,2.70
2023-04-26T09:23:13.555Z,2.20
2023-04-26T09:25:41.302Z,2.63
2023-04-26T09:28:22.356Z,2.70
2023-04-26T09:30:50.015Z,2.60
2023-04-26T09:33:17.413Z,2.90
2023-04-26T09:35:44.975Z,2.97
2023-04-26T09:38:14.054Z,3.20
2023-04-26T09:40:46.252Z,2.83
2023-04-26T09:43:20.876Z,2.80
2023-04-26T09:45:52.597Z,2.50
2023-04-26T09:48:25.478Z,2.80
2023-04-26T09:50:54.127Z,2.90
2023-04-26T09:53:41.659Z,2.90
2023-04-26T09:56:13.176Z,2.60
2023-04-26T09:58:42.348Z,2.50
2023-04-26T10:01:11.347Z,3.07
2023-04-26T10:03:39.409Z,3.00
2023-04-26T10:06:07.154Z,2.60
2023-04-26T10:08:34.815Z,2.77
2023-04-26T10:11:04.035Z,2.40
2023-04-26T10:13:34.798Z,2.83
2023-04-26T10:16:02.878Z,3.00
2023-04-26T10:18:31.863Z,2.90
2023-04-26T10:21:00.987Z,3.57
2023-04-26T10:23:29.528Z,3.70
2023-04-26T10:25:56.990Z,2.70
2023-04-26T10:28:42.393Z,3.30
2023-04-26T10:31:10.359Z,3.00
2023-04-26T10:33:37.826Z,3.40
2023-04-26T10:36:14.672Z,2.87
2023-04-26T10:38:43.072Z,2.40
2023-04-26T10:41:30.628Z,2.73
2023-04-26T10:43:59.674Z,2.73
2023-04-26T10:46:37.778Z,2.63
2023-04-26T10:49:16.097Z,2.77
2023-04-26T10:51:45.077Z,2.50
2023-04-26T10:54:12.650Z,2.80
2023-04-26T10:56:42.308Z,2.77
2023-04-26T11:01:40.201Z,2.30
2023-04-26T11:04:11.503Z,3.47
2023-04-26T11:06:52.331Z,2.60
2023-04-26T11:09:39.369Z,3.30
2023-04-26T11:12:13.196Z,2.40
2023-04-26T11:14:42.136Z,2.90
2023-04-26T11:17:09.798Z,3.10
2023-04-26T11:19:37.185Z,2.50
2023-04-26T11:22:06.352Z,2.43
2023-04-26T11:24:36.178Z,2.80
2023-04-26T11:27:05.132Z,2.60
2023-04-26T11:29:32.538Z,2.53
2023-04-26T11:31:59.976Z,2.80
2023-04-26T11:34:34.094Z,3.17
2023-04-26T11:37:05.118Z,2.93
2023-04-26T11:39:34.180Z,2.70
2023-04-26T11:42:07.814Z,2.80
2023-04-26T11:44:35.720Z,3.30
2023-04-26T11:47:06.601Z,3.00
2023-04-26T11:49:34.784Z,2.57
2023-04-26T11:52:03.120Z,3.00
2023-04-26T11:54:31.376Z,2.80
2023-04-26T11:56:59.344Z,2.60
2023-04-26T11:59:29.080Z,2.13
2023-04-26T12:01:57.465Z,2.53
2023-04-26T12:04:31.917Z,2.50
2023-04-26T12:06:59.575Z,2.83
2023-04-26T12:09:32.638Z,2.60
2023-04-26T12:12:01.812Z,2.57
2023-04-26T12:14:36.387Z,3.23
2023-04-26T12:17:06.650Z,2.53
2023-04-26T12:19:37.731Z,2.60
2023-04-26T12:22:05.701Z,2.93
2023-04-26T12:24:37.343Z,2.93
2023-04-26T12:27:07.474Z,2.53
2023-04-26T12:29:35.583Z,2.80
2023-04-26T12:32:03.929Z,3.03
2023-04-26T12:34:31.478Z,2.70
2023-04-26T12:36:58.828Z,2.93
2023-04-26T12:39:26.246Z,2.90
2023-04-26T12:41:54.897Z,3.00
2023-04-26T12:44:22.800Z,3.20
2023-04-26T12:46:51.152Z,2.97
2023-04-26T12:49:18.568Z,2.60
2023-04-26T12:51:47.017Z,3.00
2023-04-26T12:54:14.488Z,4.43
2023-04-26T12:56:43.525Z,2.80
2023-04-26T12:59:10.922Z,3.20
2023-04-26T13:01:38.395Z,2.97
2023-04-26T13:04:06.489Z,2.63
2023-04-26T13:06:34.581Z,3.03
2023-04-26T13:09:02.345Z,3.17
2023-04-26T13:11:29.734Z,2.80
2023-04-26T13:13:57.172Z,3.03
2023-04-26T13:16:25.799Z,3.10
2023-04-26T13:18:54.230Z,2.97
2023-04-26T13:21:21.635Z,2.80
2023-04-26T13:23:49.030Z,3.30
2023-04-26T13:26:17.995Z,3.10
2023-04-26T13:28:45.432Z,3.40
2023-04-26T13:31:12.858Z,3.60
2023-04-26T13:33:40.498Z,3.00
2023-04-26T13:36:08.008Z,2.70
2023-04-26T13:38:35.415Z,2.87
2023-04-26T13:41:02.890Z,3.37
2023-04-26T13:43:30.287Z,2.87
2023-04-26T13:45:57.723Z,2.60
2023-04-26T13:48:25.065Z,4.70
2023-04-26T13:50:52.457Z,4.17
2023-04-26T13:53:19.865Z,3.60
2023-04-26T13:55:47.230Z,3.13
2023-04-26T13:58:14.907Z,3.10
2023-04-26T14:00:42.612Z,3.30
2023-04-26T14:03:10.302Z,3.37
2023-04-26T14:05:37.809Z,3.40
2023-04-26T14:08:05.821Z,3.60
2023-04-26T14:10:33.309Z,3.70
2023-04-26T14:13:00.794Z,3.37
2023-04-26T14:15:28.666Z,2.57
2023-04-26T14:17:56.131Z,3.43
2023-04-26T14:20:23.586Z,3.67
2023-04-26T14:22:51.051Z,3.00
2023-04-26T14:25:18.754Z,3.40
2023-04-26T14:27:46.144Z,3.60
2023-04-26T14:30:14.676Z,3.00
2023-04-26T14:32:42.046Z,4.27
2023-04-26T14:35:09.678Z,3.33
2023-04-26T14:37:37.068Z,3.47
2023-04-26T14:40:04.897Z,3.30
2023-04-26T14:42:32.713Z,3.53
2023-04-26T14:45:00.191Z,3.77
2023-04-26T14:47:27.624Z,3.33
2023-04-26T14:49:55.233Z,2.77
2023-04-26T14:52:24.259Z,2.87
2023-04-26T14:54:51.643Z,3.50
2023-04-26T14:57:19.033Z,3.40
2023-04-26T14:59:46.784Z,3.43
2023-04-26T15:02:14.253Z,2.97
2023-04-26T15:04:41.978Z,2.60
2023-04-26T15:07:15.318Z,3.60
2023-04-26T15:09:38.553Z,3.60
2023-04-26T15:12:06.316Z,3.40
2023-04-26T15:14:33.857Z,3.13
2023-04-26T15:17:01.496Z,3.10
2023-04-26T15:19:29.026Z,3.00
2023-04-26T15:21:56.413Z,2.60
2023-04-26T15:24:23.926Z,3.10
2023-04-26T15:26:51.697Z,2.50
2023-04-26T15:29:19.092Z,2.80
2023-04-26T15:31:46.585Z,3.00
2023-04-26T15:34:14.665Z,2.70
2023-04-26T15:36:42.053Z,2.77
2023-04-26T15:39:09.442Z,3.40
2023-04-26T15:41:36.847Z,2.90
2023-04-26T15:44:04.573Z,3.10
2023-04-26T15:46:32.004Z,2.60
2023-04-26T15:48:59.451Z,2.90
2023-04-26T15:51:27.691Z,3.27
2023-04-26T15:53:55.179Z,3.03
2023-04-26T15:56:22.622Z,3.27
2023-04-26T15:58:50.054Z,3.20
2023-04-26T16:01:18.520Z,3.17
2023-04-26T16:03:47.720Z,2.97
2023-04-26T16:06:14.885Z,3.37
2023-04-26T16:08:42.247Z,3.03
2023-04-26T16:11:09.811Z,3.67
2023-04-26T16:13:37.185Z,3.73
2023-04-26T16:16:08.849Z,3.10
2023-04-26T16:18:36.426Z,3.07
2023-04-26T16:21:08.860Z,3.13
2023-04-26T16:23:36.582Z,2.73
2023-04-26T16:26:04.394Z,3.10
2023-04-26T16:28:31.906Z,2.80
2023-04-26T16:30:59.373Z,3.70
2023-04-26T16:33:27.057Z,2.97
2023-04-26T16:35:57.844Z,3.47
2023-04-26T16:38:25.237Z,2.83
2023-04-26T16:40:58.783Z,3.47
2023-04-26T16:43:29.745Z,3.70
2023-04-26T16:45:57.792Z,3.37
2023-04-26T16:48:25.303Z,3.60
2023-04-26T16:50:52.873Z,2.93
2023-04-26T16:53:21.073Z,3.20
2023-04-26T16:55:49.059Z,3.20
2023-04-26T16:58:16.442Z,2.90
2023-04-26T17:00:44.363Z,2.57
2023-04-26T17:03:12.442Z,3.50
2023-04-26T17:05:40.672Z,2.83
2023-04-26T17:08:08.362Z,3.40
2023-04-26T17:10:36.389Z,3.73
2023-04-26T17:13:04.569Z,3.27
2023-04-26T17:15:33.513Z,3.40
2023-04-26T17:18:01.931Z,3.20
2023-04-26T17:20:29.422Z,4.33
2023-04-26T17:22:56.877Z,3.47
2023-04-26T17:25:24.345Z,3.37
2023-04-26T17:27:52.583Z,3.57
2023-04-26T17:30:23.479Z,3.30
2023-04-26T17:32:51.166Z,3.47
2023-04-26T17:35:18.531Z,3.13
2023-04-26T17:37:47.649Z,3.80
2023-04-26T17:40:15.191Z,3.53
2023-04-26T17:42:42.590Z,3.50
2023-04-26T17:45:12.119Z,2.73
2023-04-26T17:47:39.436Z,3.43
2023-04-26T17:50:07.158Z,2.90
2023-04-26T17:52:34.631Z,3.10
2023-04-26T17:55:02.049Z,3.70
2023-04-26T17:57:29.412Z,3.07
2023-04-26T17:59:56.912Z,3.33
2023-04-26T18:02:24.362Z,3.70
2023-04-26T18:04:51.967Z,3.90
2023-04-26T18:07:19.577Z,3.00
2023-04-26T18:09:46.978Z,2.73
2023-04-26T18:12:14.390Z,2.70
2023-04-26T18:14:43.416Z,3.20
2023-04-26T18:17:12.062Z,2.97
2023-04-26T18:19:39.916Z,3.03
2023-04-26T18:22:07.431Z,3.07
2023-04-26T18:24:37.851Z,3.40
2023-04-26T18:27:06.042Z,3.13
2023-04-26T18:29:33.444Z,3.27
2023-04-26T18:32:00.908Z,3.10
2023-04-26T18:34:28.274Z,3.37
2023-04-26T18:36:55.660Z,3.80
2023-04-26T18:39:23.045Z,3.83
2023-04-26T18:41:51.899Z,3.63
2023-04-26T18:44:19.307Z,3.60
2023-04-26T18:46:46.813Z,3.87
2023-04-26T18:49:14.280Z,3.60
2023-04-26T18:51:41.662Z,3.70
2023-04-26T18:54:09.045Z,4.10
2023-04-26T18:56:37.419Z,3.90
2023-04-26T18:59:04.805Z,4.00
2023-04-26T19:01:32.257Z,4.27
2023-04-26T19:03:59.754Z,4.50
2023-04-26T19:06:27.929Z,4.50
2023-04-26T19:08:55.293Z,4.17
2023-04-26T19:11:22.688Z,3.90
2023-04-26T19:13:50.551Z,4.40
2023-04-26T19:16:17.991Z,3.80
2023-04-26T19:18:47.081Z,4.77
2023-04-26T19:21:14.470Z,3.60
2023-04-26T19:23:41.874Z,4.40
2023-04-26T19:26:12.001Z,3.80
2023-04-26T19:28:39.377Z,4.00
2023-04-26T19:31:07.246Z,4.27
2023-04-26T19:33:34.623Z,3.73
2023-04-26T19:36:02.013Z,3.87
2023-04-26T19:38:29.401Z,4.30
2023-04-26T19:40:56.808Z,3.80
2023-04-26T19:43:24.200Z,3.83
2023-04-26T19:45:51.598Z,3.73
2023-04-26T19:48:18.976Z,3.80
2023-04-26T19:50:46.907Z,3.67
2023-04-26T19:53:15.121Z,4.03
2023-04-26T19:55:42.765Z,3.80
2023-04-26T19:58:10.906Z,3.77
2023-04-26T20:00:41.821Z,3.50
2023-04-26T20:03:09.397Z,3.90
2023-04-26T20:05:36.906Z,4.37
2023-04-26T20:08:04.295Z,3.87
2023-04-26T20:10:34.772Z,4.63
2023-04-26T20:13:02.555Z,4.27
2023-04-26T20:15:32.155Z,4.50
2023-04-26T20:17:58.985Z,4.60
2023-04-26T20:20:26.332Z,4.30
2023-04-26T20:22:53.695Z,5.00
2023-04-26T20:25:21.109Z,4.13
2023-04-26T20:27:48.559Z,4.20
2023-04-26T20:30:16.018Z,4.10
2023-04-26T20:32:44.032Z,4.20
2023-04-26T20:35:13.358Z,4.43
2023-04-26T20:37:40.833Z,4.83
2023-04-26T20:40:09.041Z,4.73
2023-04-26T20:42:36.452Z,4.60
2023-04-26T20:45:03.880Z,4.70
2023-04-26T20:47:31.865Z,5.40
2023-04-26T20:49:59.748Z,4.70
2023-04-26T20:52:27.129Z,4.70
2023-04-26T20:54:56.147Z,4.77
2023-04-26T20:57:24.020Z,5.40
2023-04-26T20:59:51.440Z,5.07
2023-04-26T21:02:18.929Z,3.90
2023-04-26T21:04:46.549Z,4.63
2023-04-26T21:07:14.172Z,4.90
2023-04-26T21:09:42.337Z,4.43
2023-04-26T21:12:11.237Z,4.90
2023-04-26T21:14:38.642Z,4.40
2023-04-26T21:17:06.037Z,4.90
2023-04-26T21:19:33.434Z,4.80
2023-04-26T21:22:01.225Z,4.47
2023-04-26T21:24:28.605Z,4.50
2023-04-26T21:26:56.065Z,4.17
2023-04-26T21:29:23.514Z,4.40
2023-04-26T21:31:51.000Z,4.40
2023-04-26T21:34:18.408Z,4.67
2023-04-26T21:36:46.855Z,4.63
2023-04-26T21:39:14.420Z,5.13
2023-04-26T21:41:41.801Z,5.43
2023-04-26T21:44:09.183Z,4.50
2023-04-26T21:46:36.606Z,4.63
2023-04-26T21:49:03.967Z,4.07
2023-04-26T21:51:31.367Z,4.97
2023-04-26T21:53:58.734Z,4.57
2023-04-26T21:56:26.489Z,4.93
2023-04-26T21:58:53.877Z,4.63
2023-04-26T22:01:21.354Z,4.57
2023-04-26T22:03:49.019Z,4.67
2023-04-26T22:06:16.523Z,4.37
2023-04-26T22:08:43.958Z,4.17
2023-04-26T22:11:11.394Z,4.40
2023-04-26T22:13:38.824Z,4.20
2023-04-26T22:16:06.413Z,4.13
2023-04-26T22:18:35.150Z,4.10
2023-04-26T22:21:02.555Z,4.20
2023-04-26T22:23:31.117Z,4.90
2023-04-26T22:26:00.367Z,4.20
2023-04-26T22:28:27.734Z,4.47
2023-04-26T22:30:55.385Z,4.63
2023-04-26T22:33:22.856Z,5.30
2023-04-26T22:35:50.230Z,4.70
2023-04-26T22:38:17.619Z,4.17
2023-04-26T22:40:45.490Z,4.13
2023-04-26T22:43:12.897Z,4.10
2023-04-26T22:45:40.330Z,4.17
2023-04-26T22:48:07.754Z,4.07
2023-04-26T22:50:35.257Z,5.47
2023-04-26T22:53:02.821Z,4.30
2023-04-26T22:55:30.680Z,5.00
2023-04-26T22:57:58.063Z,4.50
2023-04-26T23:00:25.958Z,4.73
2023-04-26T23:02:53.543Z,4.70
2023-04-26T23:05:20.911Z,4.53
2023-04-26T23:07:48.313Z,4.83
2023-04-26T23:10:16.088Z,4.63
2023-04-26T23:12:43.486Z,5.10
2023-04-26T23:15:11.565Z,4.90
2023-04-26T23:17:40.574Z,3.80
2023-04-26T23:20:10.244Z,4.70
2023-04-26T23:22:37.700Z,4.50
2023-04-26T23:25:05.198Z,4.40
2023-04-26T23:27:32.569Z,5.27
2023-04-26T23:30:00.043Z,5.80
2023-04-26T23:32:27.461Z,4.83
2023-04-26T23:34:54.816Z,4.80
2023-04-26T23:37:22.197Z,5.10
2023-04-26T23:39:49.526Z,5.33
2023-04-26T23:42:16.896Z,4.83
2023-04-26T23:44:44.294Z,4.50
2023-04-26T23:47:11.685Z,4.60
2023-04-26T23:49:39.079Z,5.10
2023-04-26T23:52:06.987Z,5.50
2023-04-26T23:54:34.370Z,4.60
2023-04-26T23:57:03.394Z,4.80
2023-04-26T23:59:30.845Z,4.70
